createdAt,value
2022-11-02T00:01:55.375Z,16.17
2022-11-02T00:04:22.042Z,16.13
2022-11-02T00:06:48.612Z,16.12
2022-11-02T00:09:15.156Z,16.13
2022-11-02T00:11:41.708Z,16.10
2022-11-02T00:14:08.276Z,16.10
2022-11-02T00:16:37.454Z,16.08
2022-11-02T00:19:04.164Z,16.08
2022-11-02T00:21:30.633Z,16.06
2022-11-02T00:23:57.984Z,16.06
2022-11-02T00:26:25.343Z,16.04
2022-11-02T00:28:52.836Z,16.09
2022-11-02T00:31:19.644Z,16.09
2022-11-02T00:33:46.349Z,16.05
2022-11-02T00:36:13.052Z,16.12
2022-11-02T00:38:39.751Z,16.11
2022-11-02T00:41:06.334Z,16.09
2022-11-02T00:43:33.145Z,16.12
2022-11-02T00:45:59.711Z,16.08
2022-11-02T00:48:26.218Z,16.09
2022-11-02T00:50:53.575Z,16.04
2022-11-02T00:53:23.416Z,16.07
2022-11-02T00:55:53.898Z,16.10
2022-11-02T00:58:20.890Z,16.07
2022-11-02T01:00:49.518Z,16.05
2022-11-02T01:03:16.068Z,16.05
2022-11-02T01:05:42.587Z,16.06
2022-11-02T01:08:09.549Z,16.06
2022-11-02T01:10:36.089Z,16.07
2022-11-02T01:13:02.640Z,16.05
2022-11-02T01:15:29.252Z,16.05
2022-11-02T01:17:55.805Z,16.03
2022-11-02T01:20:22.365Z,16.06
2022-11-02T01:22:48.911Z,16.01
2022-11-02T01:25:15.573Z,15.99
2022-11-02T01:27:42.095Z,15.97
2022-11-02T01:30:09.095Z,15.92
2022-11-02T01:32:36.262Z,15.88
2022-11-02T01:35:10.276Z,15.85
2022-11-02T01:37:38.240Z,15.83
2022-11-02T01:40:05.260Z,15.76
2022-11-02T01:42:31.832Z,15.81
2022-11-02T01:44:58.378Z,15.76
2022-11-02T01:47:38.047Z,15.76
2022-11-02T01:50:29.341Z,15.77
2022-11-02T01:52:56.965Z,15.70
2022-11-02T01:55:26.598Z,15.69
2022-11-02T01:57:56.688Z,15.70
2022-11-02T02:00:23.300Z,15.71
2022-11-02T02:03:17.604Z,15.64
2022-11-02T02:06:09.766Z,15.63
2022-11-02T02:08:39.092Z,15.60
2022-11-02T02:11:28.548Z,15.59
2022-11-02T02:14:17.479Z,15.60
2022-11-02T02:17:12.452Z,15.55
2022-11-02T02:19:59.008Z,15.53
2022-11-02T02:22:51.658Z,15.51
2022-11-02T02:25:53.052Z,15.48
2022-11-02T02:28:23.891Z,15.44
2022-11-02T02:31:13.032Z,15.43
2022-11-02T02:33:56.202Z,15.43
2022-11-02T02:36:36.623Z,15.42
2022-11-02T02:39:13.624Z,15.39
2022-11-02T02:42:31.197Z,15.42
2022-11-02T02:45:09.815Z,15.39
2022-11-02T02:47:42.097Z,15.31
2022-11-02T02:50:16.252Z,15.32
2022-11-02T02:52:44.220Z,15.25
2022-11-02T02:55:15.467Z,15.21
2022-11-02T02:57:42.003Z,15.22
2022-11-02T03:00:17.402Z,15.22
2022-11-02T03:03:00.683Z,15.23
2022-11-02T03:05:35.532Z,15.19
2022-11-02T03:08:07.634Z,15.19
2022-11-02T03:10:44.495Z,15.19
2022-11-02T03:13:34.760Z,15.21
2022-11-02T03:16:40.175Z,15.24
2022-11-02T03:19:33.908Z,15.18
2022-11-02T03:22:09.422Z,15.15
2022-11-02T03:25:17.717Z,15.12
2022-11-02T03:27:56.941Z,15.11
2022-11-02T03:30:24.917Z,15.10
2022-11-02T03:33:00.860Z,15.18
2022-11-02T03:35:37.042Z,15.19
2022-11-02T03:38:56.200Z,15.20
2022-11-02T03:41:23.916Z,15.22
2022-11-02T03:43:55.407Z,15.20
2022-11-02T03:46:23.150Z,15.18
2022-11-02T03:48:51.452Z,15.18
2022-11-02T03:51:21.048Z,15.21
2022-11-02T03:53:53.519Z,15.22
2022-11-02T03:56:27.683Z,15.21
2022-11-02T03:58:54.778Z,15.22
2022-11-02T04:01:21.578Z,15.26
2022-11-02T04:03:48.994Z,15.16
2022-11-02T04:06:16.844Z,15.29
2022-11-02T04:08:46.306Z,15.27
2022-11-02T04:11:34.104Z,15.31
2022-11-02T04:14:27.461Z,15.35
2022-11-02T04:17:15.129Z,15.33
2022-11-02T04:19:49.707Z,15.26
2022-11-02T04:22:36.562Z,15.34
2022-11-02T04:25:20.942Z,15.30
2022-11-02T04:28:09.098Z,15.40
2022-11-02T04:30:44.202Z,15.38
2022-11-02T04:33:29.545Z,15.42
2022-11-02T04:36:04.851Z,15.40
2022-11-02T04:38:41.740Z,15.40
2022-11-02T04:41:43.255Z,15.39
2022-11-02T04:44:15.902Z,15.41
2022-11-02T04:46:45.756Z,15.42
2022-11-02T04:49:14.328Z,15.38
2022-11-02T04:51:47.157Z,15.35
2022-11-02T04:54:15.504Z,15.36
2022-11-02T04:56:43.672Z,15.36
2022-11-02T04:59:11.506Z,15.35
2022-11-02T05:01:38.361Z,15.35
2022-11-02T05:04:05.642Z,15.34
2022-11-02T05:06:34.767Z,15.37
2022-11-02T05:09:02.580Z,15.35
2022-11-02T05:11:29.249Z,15.37
2022-11-02T05:13:56.270Z,15.35
2022-11-02T05:16:22.896Z,15.33
2022-11-02T05:18:52.539Z,15.35
2022-11-02T05:21:20.149Z,15.35
2022-11-02T05:23:48.711Z,15.32
2022-11-02T05:26:15.279Z,15.39
2022-11-02T05:28:46.480Z,15.34
2022-11-02T05:31:13.287Z,15.36
2022-11-02T05:33:40.375Z,15.33
2022-11-02T05:36:12.725Z,15.35
2022-11-02T05:38:42.724Z,15.32
2022-11-02T05:41:09.534Z,15.28
2022-11-02T05:43:38.416Z,15.32
2022-11-02T05:46:08.248Z,15.32
2022-11-02T05:48:34.716Z,15.34
2022-11-02T05:51:03.212Z,15.44
2022-11-02T05:53:37.224Z,15.57
2022-11-02T05:56:06.095Z,15.52
2022-11-02T05:58:33.062Z,15.43
2022-11-02T06:01:04.143Z,15.40
2022-11-02T06:03:31.614Z,15.27
2022-11-02T06:06:03.277Z,15.36
2022-11-02T06:08:36.958Z,15.33
2022-11-02T06:11:07.779Z,15.32
2022-11-02T06:13:34.567Z,15.33
2022-11-02T06:16:02.060Z,15.33
2022-11-02T06:18:28.718Z,15.33
2022-11-02T06:20:58.861Z,15.34
2022-11-02T06:23:26.348Z,15.36
2022-11-02T06:25:54.115Z,15.37
2022-11-02T06:28:21.282Z,15.34
2022-11-02T06:30:49.406Z,15.31
2022-11-02T06:33:16.903Z,15.34
2022-11-02T06:35:47.916Z,15.35
2022-11-02T06:38:14.829Z,15.33
2022-11-02T06:40:41.553Z,15.37
2022-11-02T06:43:16.460Z,15.38
2022-11-02T06:45:43.344Z,15.42
2022-11-02T06:48:09.948Z,15.46
2022-11-02T06:50:36.531Z,15.46
2022-11-02T06:53:03.719Z,15.48
2022-11-02T06:55:30.558Z,15.48
2022-11-02T06:57:57.052Z,15.49
2022-11-02T07:00:24.144Z,15.50
2022-11-02T07:03:08.014Z,15.55
2022-11-02T07:05:36.887Z,15.63
2022-11-02T07:08:04.242Z,15.65
2022-11-02T07:10:31.227Z,15.59
2022-11-02T07:12:58.110Z,15.54
2022-11-02T07:15:25.623Z,15.65
2022-11-02T07:17:52.510Z,15.65
2022-11-02T07:20:19.734Z,15.70
2022-11-02T07:22:57.548Z,15.72
2022-11-02T07:25:25.292Z,15.69
2022-11-02T07:27:51.877Z,15.70
2022-11-02T07:30:18.668Z,15.74
2022-11-02T07:32:45.996Z,15.71
2022-11-02T07:35:23.688Z,15.72
2022-11-02T07:38:04.305Z,15.68
2022-11-02T07:40:32.001Z,15.69
2022-11-02T07:42:58.726Z,15.70
2022-11-02T07:45:35.226Z,15.76
2022-11-02T07:48:01.721Z,15.76
2022-11-02T07:50:28.471Z,15.77
2022-11-02T07:52:56.949Z,15.81
2022-11-02T07:55:25.958Z,15.83
2022-11-02T07:57:56.047Z,15.93
2022-11-02T08:00:23.106Z,15.98
2022-11-02T08:02:54.186Z,16.02
2022-11-02T08:05:20.651Z,16.08
2022-11-02T08:07:47.131Z,16.07
2022-11-02T08:10:13.684Z,16.10
2022-11-02T08:12:40.157Z,16.15
2022-11-02T08:15:07.817Z,16.16
2022-11-02T08:17:34.538Z,16.25
2022-11-02T08:20:01.012Z,16.27
2022-11-02T08:22:27.478Z,16.27
2022-11-02T08:24:53.958Z,16.28
2022-11-02T08:27:20.466Z,16.30
2022-11-02T08:29:46.978Z,16.29
2022-11-02T08:32:13.466Z,16.29
2022-11-02T08:34:39.979Z,16.29
2022-11-02T08:37:07.932Z,16.34
2022-11-02T08:39:34.418Z,16.62
2022-11-02T08:42:00.942Z,16.60
2022-11-02T08:44:27.412Z,16.59
2022-11-02T08:46:55.319Z,16.57
2022-11-02T08:49:21.947Z,16.72
2022-11-02T08:51:48.470Z,16.79
2022-11-02T08:54:15.203Z,16.77
2022-11-02T08:56:41.703Z,16.79
2022-11-02T08:59:08.756Z,16.82
2022-11-02T09:01:35.314Z,16.84
2022-11-02T09:04:01.826Z,16.87
2022-11-02T09:06:28.292Z,16.86
2022-11-02T09:08:57.925Z,16.94
2022-11-02T09:11:25.653Z,16.97
2022-11-02T09:13:56.624Z,16.99
2022-11-02T09:16:23.501Z,17.05
2022-11-02T09:18:50.119Z,17.11
2022-11-02T09:21:16.611Z,17.08
2022-11-02T09:23:43.945Z,17.27
2022-11-02T09:26:10.604Z,17.39
2022-11-02T09:28:37.166Z,17.42
2022-11-02T09:31:07.297Z,17.46
2022-11-02T09:33:37.238Z,17.52
2022-11-02T09:36:05.125Z,17.54
2022-11-02T09:38:31.758Z,17.49
2022-11-02T09:40:58.197Z,17.33
2022-11-02T09:43:32.592Z,17.53
2022-11-02T09:46:07.885Z,17.65
2022-11-02T09:48:47.745Z,17.72
2022-11-02T09:51:14.285Z,17.74
2022-11-02T09:54:01.974Z,17.81
2022-11-02T09:56:30.052Z,17.97
2022-11-02T09:59:03.040Z,17.92
2022-11-02T10:01:56.080Z,17.79
2022-11-02T10:04:53.518Z,17.75
2022-11-02T10:07:48.036Z,17.94
2022-11-02T10:10:15.956Z,18.00
2022-11-02T10:13:08.008Z,18.11
2022-11-02T10:15:53.027Z,18.37
2022-11-02T10:18:24.591Z,18.51
2022-11-02T10:20:53.449Z,18.66
2022-11-02T10:23:29.912Z,18.74
2022-11-02T10:25:56.411Z,18.71
2022-11-02T10:28:29.493Z,18.70
2022-11-02T10:30:56.088Z,18.68
2022-11-02T10:33:26.666Z,18.74
2022-11-02T10:36:21.741Z,18.76
2022-11-02T10:39:15.720Z,18.73
2022-11-02T10:41:52.222Z,18.73
2022-11-02T10:44:44.056Z,18.63
2022-11-02T10:47:22.489Z,18.65
2022-11-02T10:50:16.210Z,18.55
2022-11-02T10:52:45.132Z,18.60
2022-11-02T10:55:44.100Z,18.53
2022-11-02T10:58:15.717Z,18.53
2022-11-02T11:00:42.967Z,18.59
2022-11-02T11:03:13.275Z,18.73
2022-11-02T11:05:57.989Z,18.85
2022-11-02T11:08:31.948Z,19.07
2022-11-02T11:11:18.358Z,19.21
2022-11-02T11:19:51.422Z,19.41
2022-11-02T11:22:27.087Z,19.59
2022-11-02T11:24:56.940Z,19.66
2022-11-02T11:27:23.797Z,19.64
2022-11-02T11:29:53.687Z,19.68
2022-11-02T11:32:30.481Z,19.73
2022-11-02T11:35:00.428Z,19.72
2022-11-02T11:37:27.528Z,19.76
2022-11-02T11:40:06.808Z,19.74
2022-11-02T11:42:36.804Z,19.78
2022-11-02T11:45:07.118Z,19.84
2022-11-02T11:47:39.165Z,19.87
2022-11-02T11:50:21.356Z,19.91
2022-11-02T11:53:16.683Z,20.18
2022-11-02T11:55:59.881Z,20.24
2022-11-02T11:58:30.600Z,20.16
2022-11-02T12:01:12.413Z,20.36
2022-11-02T12:04:00.376Z,20.56
2022-11-02T12:06:40.688Z,20.51
2022-11-02T12:09:14.285Z,20.48
2022-11-02T12:11:57.019Z,20.53
2022-11-02T12:14:39.736Z,20.55
2022-11-02T12:17:32.416Z,20.45
2022-11-02T12:20:01.791Z,20.53
2022-11-02T12:22:40.139Z,20.52
2022-11-02T12:25:25.608Z,20.40
2022-11-02T12:28:09.010Z,20.33
2022-11-02T12:31:06.452Z,20.47
2022-11-02T12:34:02.277Z,20.36
2022-11-02T12:36:31.733Z,20.32
2022-11-02T14:28:40.628Z,24.11
2022-11-02T14:31:16.091Z,23.87
2022-11-02T14:34:12.713Z,24.08
2022-11-02T14:37:09.929Z,24.27
2022-11-02T14:39:45.446Z,24.43
2022-11-02T14:42:14.815Z,25.19
2022-11-02T14:45:00.069Z,26.22
2022-11-02T14:47:31.576Z,26.51
2022-11-02T14:50:13.092Z,27.24
2022-11-02T14:52:40.620Z,28.21
2022-11-02T14:55:19.197Z,28.55
2022-11-02T14:57:59.459Z,29.20
2022-11-02T15:00:34.175Z,28.08
2022-11-02T15:03:01.579Z,27.06
2022-11-02T15:05:36.297Z,26.60
2022-11-02T15:08:24.079Z,26.80
2022-11-02T15:10:50.645Z,26.85
2022-11-02T15:13:19.877Z,26.08
2022-11-02T15:16:12.302Z,26.03
2022-11-02T15:18:40.459Z,25.31
2022-11-02T15:21:12.998Z,25.09
2022-11-02T15:24:10.943Z,24.97
2022-11-02T15:26:42.428Z,23.83
2022-11-02T15:29:35.942Z,23.65
2022-11-02T15:32:04.677Z,23.50
2022-11-02T15:34:35.732Z,23.63
2022-11-02T15:37:02.652Z,23.28
2022-11-02T15:39:30.091Z,23.14
2022-11-02T15:42:13.768Z,22.71
2022-11-02T15:45:14.254Z,22.34
2022-11-02T15:48:00.137Z,21.85
2022-11-02T15:50:29.620Z,21.51
2022-11-02T15:53:27.091Z,21.23
2022-11-02T15:56:19.127Z,21.19
2022-11-02T15:59:09.444Z,20.98
2022-11-02T16:01:36.207Z,20.68
2022-11-02T16:04:05.936Z,20.57
2022-11-02T16:06:38.084Z,20.51
2022-11-02T16:09:36.585Z,20.64
2022-11-02T16:12:12.223Z,20.20
2022-11-02T16:14:40.426Z,20.11
2022-11-02T16:17:18.912Z,19.99
2022-11-02T16:19:45.425Z,19.88
2022-11-02T16:22:12.230Z,19.88
2022-11-02T16:24:44.617Z,19.78
2022-11-02T16:27:12.390Z,19.52
2022-11-02T16:29:40.454Z,19.54
2022-11-02T16:32:11.007Z,19.48
2022-11-02T16:34:38.276Z,19.58
2022-11-02T16:37:10.044Z,19.51
2022-11-02T16:39:39.528Z,19.39
2022-11-02T16:42:09.898Z,19.36
2022-11-02T16:44:36.542Z,19.20
2022-11-02T16:47:09.562Z,19.19
2022-11-02T16:49:57.528Z,19.18
2022-11-02T16:52:32.796Z,19.16
2022-11-02T16:54:59.756Z,19.06
2022-11-02T16:57:42.333Z,19.04
2022-11-02T17:00:26.822Z,19.06
2022-11-02T17:02:54.416Z,19.00
2022-11-02T17:05:23.532Z,18.92
2022-11-02T17:07:58.852Z,18.92
2022-11-02T17:10:27.700Z,18.86
2022-11-02T17:12:55.484Z,18.84
2022-11-02T17:15:24.149Z,18.73
2022-11-02T17:17:50.907Z,18.74
2022-11-02T17:20:22.759Z,18.73
2022-11-02T17:23:00.429Z,18.73
2022-11-02T17:25:34.911Z,18.65
2022-11-02T17:28:04.418Z,18.64
2022-11-02T17:30:33.912Z,18.60
2022-11-02T17:33:07.289Z,18.52
2022-11-02T17:35:34.274Z,18.45
2022-11-02T17:38:01.877Z,18.47
2022-11-02T17:40:28.748Z,18.43
2022-11-02T17:42:58.802Z,18.45
2022-11-02T17:45:38.925Z,18.45
2022-11-02T17:48:10.773Z,18.36
2022-11-02T17:50:38.651Z,18.37
2022-11-02T17:53:06.024Z,18.30
2022-11-02T17:55:35.818Z,18.28
2022-11-02T17:58:02.855Z,18.33
2022-11-02T18:00:29.572Z,18.17
2022-11-02T18:02:57.833Z,18.26
2022-11-02T18:05:29.749Z,18.22
2022-11-02T18:07:57.809Z,18.17
2022-11-02T18:10:26.567Z,18.14
2022-11-02T18:12:53.197Z,18.03
2022-11-02T18:15:24.536Z,18.05
2022-11-02T18:17:51.520Z,18.00
2022-11-02T18:20:19.100Z,17.98
2022-11-02T18:22:46.113Z,17.90
2022-11-02T18:25:15.325Z,17.99
2022-11-02T18:27:41.979Z,17.89
2022-11-02T18:30:12.906Z,17.92
2022-11-02T18:32:40.372Z,17.88
2022-11-02T18:35:10.225Z,17.80
2022-11-02T18:37:37.825Z,17.72
2022-11-02T18:40:05.824Z,17.73
2022-11-02T18:42:32.432Z,17.66
2022-11-02T18:45:00.213Z,17.64
2022-11-02T18:47:26.734Z,17.59
2022-11-02T18:49:54.005Z,17.62
2022-11-02T18:52:22.418Z,17.56
2022-11-02T18:54:49.254Z,17.59
2022-11-02T18:57:15.758Z,17.52
2022-11-02T18:59:42.214Z,17.42
2022-11-02T19:02:09.937Z,17.37
2022-11-02T19:04:36.935Z,17.47
2022-11-02T19:07:22.454Z,17.42
2022-11-02T19:09:49.024Z,17.41
2022-11-02T19:12:18.789Z,17.40
2022-11-02T19:14:46.895Z,17.34
2022-11-02T19:17:14.420Z,17.39
2022-11-02T19:19:43.034Z,17.33
2022-11-02T19:22:12.630Z,17.21
2022-11-02T19:24:39.481Z,17.02
2022-11-02T19:27:05.996Z,17.12
2022-11-02T19:29:33.909Z,17.14
2022-11-02T19:32:00.464Z,17.20
2022-11-02T19:34:26.944Z,17.13
2022-11-02T19:36:53.712Z,17.12
2022-11-02T19:39:20.263Z,17.17
2022-11-02T19:41:51.668Z,17.07
2022-11-02T19:44:18.648Z,17.03
2022-11-02T19:46:45.277Z,17.03
2022-11-02T19:49:11.890Z,17.00
2022-11-02T19:51:38.715Z,16.95
2022-11-02T19:54:05.356Z,16.91
2022-11-02T19:56:33.423Z,16.94
2022-11-02T19:59:00.944Z,16.88
2022-11-02T20:01:33.099Z,16.81
2022-11-02T20:03:59.798Z,16.75
2022-11-02T20:06:29.034Z,16.76
2022-11-02T20:08:57.427Z,16.82
2022-11-02T20:11:27.085Z,16.78
2022-11-02T20:13:53.843Z,16.73
2022-11-02T20:16:20.641Z,16.80
2022-11-02T20:18:48.839Z,16.76
2022-11-02T20:21:31.606Z,16.70
2022-11-02T20:24:00.348Z,16.65
2022-11-02T20:26:29.945Z,16.65
2022-11-02T20:28:58.128Z,16.62
2022-11-02T20:31:27.205Z,16.60
2022-11-02T20:33:53.936Z,16.50
2022-11-02T20:36:20.598Z,16.47
2022-11-02T20:38:47.155Z,16.40
2022-11-02T20:41:15.988Z,16.39
2022-11-02T20:43:47.038Z,16.40
2022-11-02T20:46:37.461Z,16.38
2022-11-02T20:49:13.756Z,16.40
2022-11-02T20:51:52.580Z,16.39
2022-11-02T20:54:19.954Z,16.31
2022-11-02T20:56:47.119Z,16.35
2022-11-02T20:59:13.917Z,16.27
2022-11-02T21:01:40.764Z,16.27
2022-11-02T21:04:07.563Z,16.23
2022-11-02T21:06:34.365Z,16.23
2022-11-02T21:09:01.024Z,16.18
2022-11-02T21:11:46.183Z,16.14
2022-11-02T21:14:13.235Z,16.34
2022-11-02T21:16:39.772Z,16.29
2022-11-02T21:19:06.395Z,16.26
2022-11-02T21:21:33.062Z,16.16
2022-11-02T21:23:59.766Z,16.08
2022-11-02T21:26:26.354Z,16.00
2022-11-02T21:28:53.021Z,15.99
2022-11-02T21:31:20.742Z,15.87
2022-11-02T21:33:49.107Z,15.99
2022-11-02T21:36:17.105Z,15.98
2022-11-02T21:38:45.048Z,16.01
2022-11-02T21:41:17.100Z,15.98
2022-11-02T21:43:43.654Z,15.98
2022-11-02T21:46:10.206Z,15.98
2022-11-02T21:48:37.816Z,15.95
2022-11-02T21:51:07.026Z,15.91
2022-11-02T21:53:35.725Z,15.88
2022-11-02T21:56:07.510Z,15.88
2022-11-02T21:58:34.315Z,15.89
2022-11-02T22:01:24.705Z,15.88
2022-11-02T22:03:51.782Z,15.88
2022-11-02T22:06:20.660Z,15.89
2022-11-02T22:08:47.381Z,15.87
2022-11-02T22:11:21.592Z,15.84
2022-11-02T22:13:49.805Z,15.90
2022-11-02T22:16:18.787Z,15.89
2022-11-02T22:18:47.419Z,15.91
2022-11-02T22:21:14.295Z,15.92
2022-11-02T22:23:41.137Z,15.92
2022-11-02T22:26:10.015Z,15.96
2022-11-02T22:28:39.086Z,15.88
2022-11-02T22:31:06.710Z,15.95
2022-11-02T22:33:33.519Z,16.00
2022-11-02T22:36:00.130Z,15.98
2022-11-02T22:38:45.048Z,15.94
2022-11-02T22:41:11.628Z,15.91
2022-11-02T22:43:38.129Z,15.90
2022-11-02T22:46:06.394Z,15.93
2022-11-02T22:48:33.483Z,15.91
2022-11-02T22:51:00.231Z,15.92
2022-11-02T22:53:29.701Z,15.80
2022-11-02T22:56:02.777Z,15.90
2022-11-02T22:58:30.519Z,15.91
2022-11-02T23:00:57.251Z,15.85
2022-11-02T23:03:24.004Z,15.82
2022-11-02T23:05:50.528Z,15.87
2022-11-02T23:08:18.049Z,15.86
2022-11-02T23:11:03.551Z,15.91
2022-11-02T23:13:30.079Z,15.92
2022-11-02T23:16:21.326Z,15.89
2022-11-02T23:19:13.376Z,15.89
2022-11-02T23:21:42.137Z,15.93
2022-11-02T23:24:27.551Z,15.96
2022-11-02T23:26:55.685Z,15.87
2022-11-02T23:29:40.756Z,15.92
2022-11-02T23:32:25.809Z,15.90
2022-11-02T23:35:11.891Z,15.86
2022-11-02T23:37:38.467Z,15.90
2022-11-02T23:40:05.550Z,15.88
2022-11-02T23:42:32.388Z,15.91
2022-11-02T23:44:59.364Z,15.87
2022-11-02T23:47:47.164Z,15.80
2022-11-02T23:50:13.808Z,15.80
2022-11-02T23:52:58.891Z,15.80
2022-11-02T23:55:43.866Z,15.79
2022-11-02T23:58:10.356Z,15.78
